Terminal Aerodrome Forecast
Issued by NWS Memphis, TN

Home | Current Version | Previous Version | Text Only | Print | Product List | Glossary On
Versions: 1 2 3 4 5 6 7 8 9 10 11 12 13 14 15 16 17 18 19 20 21 22 23 24 25 26 27
000
FTUS44 KMEG 181500 AAB
TAFMEM
TAF AMD
KMEM 181501Z 1815/1912 10007KT P6SM SCT045 BKN070 OVC250
     FM181700 07005KT P6SM VCTS BKN035CB BKN250
     FM182300 06004KT P6SM SCT035 SCT250
      TEMPO 1908/1912 5SM BR=

USA.gov is the U.S. government's official web portal to all federal, state and local government web resources and services.